UMOO

Mogilev Airport

Mogilev, Belarus
TAF UMOO 230800Z 2309/2318 04005MPS 9999 BKN025 TEMPO 2309/2315 32004MPS BECMG 2311/2313 11005MPS
Issued Valid From Valid To
Apr-23 @ 08:00 UTC
(2 hours ago)
Apr-23 @ 09:00 UTC
(32 minutes ago)
Apr-23 @ 18:00 UTC
(in 8 hours)
Apr-23 @ 09:00 to Apr-23 @ 11:00
TAF UMOO 230800Z 2309/2318 04005MPS 9999 BKN025
Wind Visibility Clouds
40° at 10 knots 10,000+ meters
  • Broken at 2,500' AGL
Temporary Apr-23 @ 09:00 to Apr-23 @ 15:00
TEMPO 2309/2315 32004MPS
Wind
320° at 8 knots
Becoming Apr-23 @ 11:00 to Apr-23 @ 18:00
BECMG 2311/2313 11005MPS
Wind Visibility Clouds
110° at 10 knots 10,000+ meters
  • Broken at 2,500' AGL
TAF UMOO 230800Z 2309/2318 04005MPS 9999 BKN025 TEMPO 2309/2315 32004MPS BECMG 2311/2313 11005MPS
Issued Apr-23 @ 08:00 UTC
(2 hours ago)
Valid From Apr-23 @ 09:00 UTC
(32 minutes ago)
Valid To Apr-23 @ 18:00 UTC
(in 8 hours)
Apr-23 @ 09:00 - Apr-23 @ 11:00
Wind Visibility
40° at 10 knots 10,000+ meters
Clouds
  • Broken at 2,500' AGL
Temporary Apr-23 @ 09:00 - Apr-23 @ 15:00
Wind
320° at 8 knots
Becoming Apr-23 @ 11:00 - Apr-23 @ 18:00
Wind Visibility
110° at 10 knots 10,000+ meters
Clouds
  • Broken at 2,500' AGL